createdAt,value
2018-02-11T00:01:28.449Z,65.00
2018-02-11T00:03:56.900Z,65.00
2018-02-11T00:06:25.277Z,64.80
2018-02-11T00:08:53.669Z,64.80
2018-02-11T00:11:22.071Z,64.70
2018-02-11T00:13:50.545Z,64.40
2018-02-11T00:16:18.909Z,64.40
2018-02-11T00:18:47.311Z,64.50
2018-02-11T00:21:15.837Z,64.30
2018-02-11T00:23:44.965Z,64.50
2018-02-11T00:26:13.407Z,64.40
2018-02-11T00:28:42.086Z,64.50
2018-02-11T00:31:11.568Z,64.80
2018-02-11T00:33:40.047Z,64.70
2018-02-11T00:36:08.719Z,65.40
2018-02-11T00:38:37.292Z,64.70
2018-02-11T00:41:06.054Z,64.80
2018-02-11T00:43:34.849Z,64.40
2018-02-11T00:46:03.642Z,64.40
2018-02-11T00:48:32.351Z,64.40
2018-02-11T00:51:01.246Z,64.50
2018-02-11T00:53:29.938Z,64.60
2018-02-11T00:55:59.095Z,64.50
2018-02-11T00:58:27.485Z,64.50
2018-02-11T01:00:55.851Z,64.20
2018-02-11T01:03:24.460Z,64.00
2018-02-11T01:05:52.821Z,63.60
2018-02-11T01:08:21.197Z,63.50
2018-02-11T01:10:49.576Z,63.60
2018-02-11T01:13:17.941Z,63.40
2018-02-11T01:15:47.266Z,63.60
2018-02-11T01:18:15.639Z,63.60
2018-02-11T01:20:44.010Z,64.00
2018-02-11T01:23:12.395Z,64.10
2018-02-11T01:25:40.757Z,64.00
2018-02-11T01:28:09.366Z,64.10
2018-02-11T01:30:37.736Z,64.20
2018-02-11T01:33:06.097Z,63.90
2018-02-11T01:35:34.533Z,63.90
2018-02-11T01:38:02.896Z,64.10
2018-02-11T01:40:31.561Z,63.90
2018-02-11T01:42:59.912Z,63.80
2018-02-11T01:45:29.037Z,63.40
2018-02-11T01:47:57.426Z,63.40
2018-02-11T01:50:25.786Z,63.50
2018-02-11T01:52:54.233Z,63.30
2018-02-11T01:55:22.569Z,63.40
2018-02-11T01:57:51.129Z,63.60
2018-02-11T02:00:19.486Z,63.40
2018-02-11T02:02:47.848Z,63.50
2018-02-11T02:05:17.003Z,63.60
2018-02-11T02:07:45.370Z,63.60
2018-02-11T02:10:13.781Z,63.60
2018-02-11T02:12:42.146Z,63.80
2018-02-11T02:15:11.047Z,63.70
2018-02-11T02:17:41.656Z,63.70
2018-02-11T02:20:10.013Z,63.60
2018-02-11T02:22:38.600Z,63.40
2018-02-11T02:25:06.965Z,63.70
2018-02-11T02:27:35.373Z,63.60
2018-02-11T02:30:03.767Z,63.50
2018-02-11T02:32:32.138Z,63.30
2018-02-11T02:35:00.904Z,63.50
2018-02-11T02:37:29.267Z,63.70
2018-02-11T02:39:57.672Z,63.90
2018-02-11T02:42:26.064Z,64.00
2018-02-11T02:44:54.432Z,64.40
2018-02-11T02:47:22.834Z,64.80
2018-02-11T02:49:51.967Z,65.10
2018-02-11T02:52:20.337Z,65.10
2018-02-11T02:54:49.536Z,65.20
2018-02-11T02:57:18.671Z,65.20
2018-02-11T02:59:47.245Z,65.20
2018-02-11T03:02:15.604Z,65.50
2018-02-11T03:04:43.972Z,65.80
2018-02-11T03:07:13.129Z,66.20
2018-02-11T03:09:41.497Z,66.20
2018-02-11T03:12:09.889Z,66.50
2018-02-11T03:14:38.257Z,66.70
2018-02-11T03:17:05.917Z,66.80
2018-02-11T03:19:34.301Z,67.20
2018-02-11T03:22:02.663Z,67.70
2018-02-11T03:24:31.242Z,67.70
2018-02-11T03:26:59.608Z,68.00
2018-02-11T03:29:27.973Z,68.30
2018-02-11T03:31:56.361Z,68.40
2018-02-11T03:34:24.733Z,68.60
2018-02-11T03:36:53.156Z,68.40
2018-02-11T03:39:21.517Z,68.50
2018-02-11T03:41:49.878Z,68.60
2018-02-11T03:44:18.274Z,69.00
2018-02-11T03:46:46.641Z,68.90
2018-02-11T03:49:15.133Z,69.00
2018-02-11T03:51:43.493Z,69.00
2018-02-11T03:54:11.854Z,68.90
2018-02-11T03:56:40.246Z,68.90
2018-02-11T03:59:08.616Z,68.80
2018-02-11T04:01:37.222Z,68.90
2018-02-11T04:04:05.594Z,68.40
2018-02-11T04:06:33.966Z,68.40
2018-02-11T04:09:02.354Z,68.20
2018-02-11T04:11:30.714Z,68.20
2018-02-11T04:13:59.104Z,68.20
2018-02-11T04:16:27.460Z,68.20
2018-02-11T04:18:56.589Z,67.80
2018-02-11T04:21:24.965Z,67.80
2018-02-11T04:23:53.330Z,67.80
2018-02-11T04:26:21.909Z,67.70
2018-02-11T04:28:50.285Z,68.00
2018-02-11T04:31:19.058Z,67.80
2018-02-11T04:33:48.762Z,67.70
2018-02-11T04:36:18.354Z,67.70
2018-02-11T04:38:48.312Z,68.30
2018-02-11T04:41:17.960Z,67.50
2018-02-11T04:43:46.857Z,67.20
2018-02-11T04:46:15.847Z,67.30
2018-02-11T04:48:44.711Z,67.00
2018-02-11T04:51:14.053Z,67.20
2018-02-11T04:53:42.918Z,67.20
2018-02-11T04:56:11.820Z,67.10
2018-02-11T04:58:40.851Z,67.20
2018-02-11T05:01:09.217Z,67.40
2018-02-11T05:03:38.662Z,67.30
2018-02-11T05:06:07.029Z,67.30
2018-02-11T05:08:35.401Z,67.40
2018-02-11T05:11:03.797Z,67.40
2018-02-11T05:13:32.167Z,67.20
2018-02-11T05:16:00.969Z,67.30
2018-02-11T05:18:29.335Z,67.30
2018-02-11T05:20:57.714Z,67.30
2018-02-11T05:23:26.110Z,67.30
2018-02-11T05:25:54.472Z,67.20
2018-02-11T05:28:22.886Z,66.90
2018-02-11T05:30:51.253Z,67.00
2018-02-11T05:33:20.423Z,67.30
2018-02-11T05:35:48.811Z,66.70
2018-02-11T05:38:17.173Z,66.70
2018-02-11T05:40:45.969Z,66.60
2018-02-11T05:43:14.328Z,66.70
2018-02-11T05:45:42.688Z,66.80
2018-02-11T05:48:11.933Z,66.90
2018-02-11T05:50:40.307Z,66.90
2018-02-11T05:53:08.713Z,66.40
2018-02-11T05:55:37.082Z,66.20
2018-02-11T05:58:05.449Z,65.90
2018-02-11T06:00:33.842Z,66.00
2018-02-11T06:03:02.210Z,66.20
2018-02-11T06:05:30.783Z,66.30
2018-02-11T06:07:59.160Z,66.30
2018-02-11T06:10:27.525Z,66.20
2018-02-11T06:12:55.920Z,66.40
2018-02-11T06:15:24.298Z,66.50
2018-02-11T06:17:52.705Z,66.70
2018-02-11T06:20:21.078Z,66.60
2018-02-11T06:22:49.456Z,66.50
2018-02-11T06:25:17.916Z,66.60
2018-02-11T06:27:46.273Z,66.40
2018-02-11T06:30:14.853Z,66.20
2018-02-11T06:32:43.221Z,66.30
2018-02-11T06:35:11.610Z,66.30
2018-02-11T06:37:40.007Z,66.40
2018-02-11T06:40:08.374Z,66.30
2018-02-11T06:42:36.772Z,66.20
2018-02-11T06:45:05.134Z,66.00
2018-02-11T06:47:33.505Z,66.00
2018-02-11T06:50:01.886Z,65.70
2018-02-11T06:52:30.254Z,65.90
2018-02-11T06:54:58.945Z,66.00
2018-02-11T06:57:27.313Z,65.60
2018-02-11T06:59:55.678Z,65.80
2018-02-11T07:02:24.838Z,65.10
2018-02-11T07:04:53.192Z,65.00
2018-02-11T07:07:21.764Z,65.00
2018-02-11T07:09:50.125Z,64.40
2018-02-11T07:12:19.253Z,63.20
2018-02-11T07:14:47.637Z,63.30
2018-02-11T07:17:15.996Z,62.50
2018-02-11T07:19:44.577Z,62.40
2018-02-11T07:22:12.938Z,62.40
2018-02-11T07:24:41.296Z,62.30
2018-02-11T07:27:10.445Z,61.60
2018-02-11T07:29:38.815Z,61.60
2018-02-11T07:32:07.323Z,60.90
2018-02-11T07:34:35.677Z,60.00
2018-02-11T07:37:04.065Z,59.50
2018-02-11T07:39:32.455Z,58.40
2018-02-11T07:42:00.857Z,57.90
2018-02-11T07:44:29.258Z,57.20
2018-02-11T07:46:58.518Z,55.80
2018-02-11T07:49:26.851Z,55.70
2018-02-11T07:51:55.233Z,54.90
2018-02-11T07:54:23.731Z,55.00
2018-02-11T07:56:52.309Z,53.50
2018-02-11T07:59:20.717Z,52.40
2018-02-11T08:01:49.712Z,51.80
2018-02-11T08:04:21.786Z,51.40
2018-02-11T08:06:50.816Z,50.10
2018-02-11T08:09:19.794Z,49.00
2018-02-11T08:11:49.188Z,48.80
2018-02-11T08:14:17.591Z,47.70
2018-02-11T08:16:46.278Z,47.20
2018-02-11T08:19:15.319Z,46.90
2018-02-11T08:21:45.972Z,48.00
2018-02-11T08:24:14.548Z,48.00
2018-02-11T08:26:44.982Z,50.10
2018-02-11T08:29:13.800Z,50.00
2018-02-11T08:31:42.821Z,50.90
2018-02-11T08:34:11.917Z,52.00
2018-02-11T08:36:42.204Z,53.40
2018-02-11T08:39:12.185Z,53.90
2018-02-11T08:41:42.116Z,53.90
2018-02-11T08:44:11.287Z,54.60
2018-02-11T08:46:40.361Z,54.50
2018-02-11T08:49:09.063Z,55.30
2018-02-11T08:51:38.925Z,55.70
2018-02-11T08:54:07.909Z,55.70
2018-02-11T08:56:37.034Z,55.50
2018-02-11T08:59:05.850Z,55.40
2018-02-11T09:01:36.109Z,55.10
2018-02-11T09:04:04.773Z,55.10
2018-02-11T09:06:33.583Z,55.00
2018-02-11T09:09:02.123Z,53.90
2018-02-11T09:11:31.503Z,53.50
2018-02-11T09:14:01.856Z,53.50
2018-02-11T09:16:32.354Z,53.00
2018-02-11T09:19:04.110Z,53.30
2018-02-11T09:21:34.627Z,53.30
2018-02-11T09:24:05.665Z,53.00
2018-02-11T09:26:36.472Z,52.90
2018-02-11T09:29:07.745Z,51.00
2018-02-11T09:31:38.393Z,51.60
2018-02-11T09:34:09.469Z,51.30
2018-02-11T09:36:38.768Z,51.60
2018-02-11T09:39:08.938Z,51.60
2018-02-11T09:41:39.640Z,51.40
2018-02-11T09:44:10.575Z,51.40
2018-02-11T09:46:40.577Z,50.40
2018-02-11T09:49:12.072Z,49.60
2018-02-11T09:51:42.027Z,47.90
2018-02-11T09:54:11.088Z,46.70
2018-02-11T09:56:41.502Z,44.60
2018-02-11T09:59:12.348Z,40.90
2018-02-11T10:01:42.112Z,40.90
2018-02-11T10:04:11.872Z,41.20
2018-02-11T10:06:43.335Z,41.10
2018-02-11T10:09:14.146Z,39.90
2018-02-11T10:11:43.508Z,38.80
2018-02-11T10:14:12.582Z,40.10
2018-02-11T10:16:42.230Z,41.70
2018-02-11T10:19:12.416Z,44.30
2018-02-11T10:21:42.059Z,44.40
2018-02-11T10:24:11.728Z,45.20
2018-02-11T10:26:41.233Z,45.20
2018-02-11T10:29:09.724Z,44.90
2018-02-11T10:31:38.124Z,45.00
2018-02-11T10:34:06.532Z,44.80
2018-02-11T10:36:35.154Z,46.00
2018-02-11T10:39:10.494Z,46.60
2018-02-11T10:41:40.063Z,47.00
2018-02-11T10:44:08.752Z,46.90
2018-02-11T10:46:38.039Z,47.90
2018-02-11T10:49:08.547Z,46.80
2018-02-11T10:51:38.066Z,46.50
2018-02-11T10:54:06.462Z,46.50
2018-02-11T10:56:35.858Z,46.20
2018-02-11T10:59:05.294Z,46.20
2018-02-11T11:01:33.894Z,44.90
2018-02-11T11:04:02.257Z,44.90
2018-02-11T11:06:30.636Z,45.20
2018-02-11T11:08:59.021Z,46.10
2018-02-11T11:11:27.424Z,46.60
2018-02-11T11:13:56.285Z,47.40
2018-02-11T11:16:24.845Z,48.10
2018-02-11T11:18:53.221Z,48.30
2018-02-11T11:21:21.753Z,48.40
2018-02-11T11:23:50.410Z,48.30
2018-02-11T11:26:18.841Z,48.20
2018-02-11T11:28:47.978Z,49.00
2018-02-11T11:31:16.475Z,49.00
2018-02-11T11:33:44.858Z,49.30
2018-02-11T11:36:13.306Z,49.40
2018-02-11T11:38:42.039Z,51.00
2018-02-11T11:41:10.590Z,55.30
2018-02-11T11:43:39.070Z,58.30
2018-02-11T11:46:07.612Z,58.70
2018-02-11T11:48:37.184Z,58.00
2018-02-11T11:51:05.710Z,58.00
2018-02-11T11:53:34.853Z,57.20
2018-02-11T11:56:03.234Z,57.10
2018-02-11T11:58:31.677Z,56.20
2018-02-11T12:01:00.110Z,56.50
2018-02-11T12:03:28.504Z,56.60
2018-02-11T12:05:56.910Z,56.90
2018-02-11T12:08:25.311Z,57.40
2018-02-11T12:10:54.113Z,57.70
2018-02-11T12:13:22.589Z,58.20
2018-02-11T12:15:51.467Z,58.80
2018-02-11T12:18:20.234Z,59.10
2018-02-11T12:20:50.174Z,59.10
2018-02-11T12:23:18.918Z,59.00
2018-02-11T12:25:47.354Z,59.70
2018-02-11T12:28:16.049Z,59.70
2018-02-11T12:30:44.545Z,59.80
2018-02-11T12:33:13.006Z,60.00
2018-02-11T12:35:41.689Z,60.30
2018-02-11T12:38:11.418Z,60.90
2018-02-11T12:40:41.206Z,60.20
2018-02-11T12:43:12.962Z,61.20
2018-02-11T12:45:42.678Z,61.20
2018-02-11T12:48:11.145Z,61.00
2018-02-11T12:50:40.097Z,61.50
2018-02-11T12:53:08.676Z,61.60
2018-02-11T12:55:44.100Z,62.20
2018-02-11T12:58:13.074Z,62.20
2018-02-11T13:00:42.977Z,63.00
2018-02-11T13:03:11.938Z,63.20
2018-02-11T13:05:41.131Z,63.40
2018-02-11T13:08:09.621Z,62.80
2018-02-11T13:10:38.846Z,62.40
2018-02-11T13:13:07.635Z,62.40
2018-02-11T13:15:36.111Z,62.20
2018-02-11T13:18:05.114Z,61.80
2018-02-11T13:20:36.164Z,61.30
2018-02-11T13:23:04.871Z,61.80
2018-02-11T13:25:34.852Z,61.50
2018-02-11T13:28:03.436Z,61.60
2018-02-11T13:30:32.329Z,61.60
2018-02-11T13:33:00.774Z,62.10
2018-02-11T13:35:29.596Z,62.30
2018-02-11T13:37:58.384Z,62.20
2018-02-11T13:40:27.723Z,61.90
2018-02-11T13:42:57.396Z,62.40
2018-02-11T13:45:25.794Z,62.40
2018-02-11T13:47:54.341Z,62.90
2018-02-11T13:50:22.962Z,63.30
2018-02-11T13:52:51.553Z,63.30
2018-02-11T13:55:21.796Z,64.20
2018-02-11T13:57:50.429Z,64.10
2018-02-11T14:00:19.115Z,64.80
2018-02-11T14:02:47.506Z,65.20
2018-02-11T14:05:16.076Z,64.80
2018-02-11T14:07:44.505Z,65.20
2018-02-11T14:10:13.659Z,65.20
2018-02-11T14:12:42.593Z,65.20
2018-02-11T14:15:11.003Z,65.70
2018-02-11T14:17:39.364Z,66.20
2018-02-11T14:20:07.759Z,66.20
2018-02-11T14:22:36.147Z,66.60
2018-02-11T14:25:05.217Z,66.50
2018-02-11T14:27:33.617Z,66.30
2018-02-11T14:30:02.180Z,66.80
2018-02-11T14:32:30.776Z,67.00
2018-02-11T14:34:59.470Z,67.40
2018-02-11T14:37:28.247Z,67.60
2018-02-11T14:39:56.630Z,69.10
2018-02-11T14:42:24.997Z,69.10
2018-02-11T14:44:53.576Z,69.60
2018-02-11T14:47:21.946Z,69.60
2018-02-11T14:49:50.561Z,69.90
2018-02-11T14:52:18.930Z,69.40
2018-02-11T14:54:47.339Z,69.90
2018-02-11T14:57:15.750Z,69.90
2018-02-11T14:59:45.209Z,71.00
2018-02-11T15:02:13.781Z,71.00
2018-02-11T15:04:42.372Z,70.80
2018-02-11T15:07:10.974Z,70.40
2018-02-11T15:09:39.540Z,70.70
2018-02-11T15:12:07.913Z,71.20
2018-02-11T15:14:36.895Z,71.30
2018-02-11T15:17:05.273Z,71.40
2018-02-11T15:19:33.661Z,71.70
2018-02-11T15:22:02.150Z,71.40
2018-02-11T15:24:30.522Z,71.90
2018-02-11T15:26:59.268Z,71.70
2018-02-11T15:29:28.399Z,71.70
2018-02-11T15:31:56.941Z,71.70
2018-02-11T15:34:26.190Z,72.00
2018-02-11T15:36:54.601Z,72.00
2018-02-11T15:39:23.037Z,71.90
2018-02-11T15:41:51.414Z,71.20
2018-02-11T15:44:19.783Z,71.90
2018-02-11T15:46:48.200Z,72.10
2018-02-11T15:49:16.589Z,72.60
2018-02-11T15:51:46.783Z,72.80
2018-02-11T15:54:15.175Z,72.70
2018-02-11T15:56:44.296Z,72.60
2018-02-11T15:59:13.465Z,72.90
2018-02-11T16:01:42.313Z,72.90
2018-02-11T16:04:11.241Z,72.60
2018-02-11T16:06:39.672Z,72.70
2018-02-11T16:09:08.232Z,72.60
2018-02-11T16:11:36.649Z,72.90
2018-02-11T16:14:05.010Z,73.00
2018-02-11T16:16:34.960Z,73.50
2018-02-11T16:19:03.453Z,73.20
2018-02-11T16:21:31.894Z,73.20
2018-02-11T16:24:01.148Z,73.50
2018-02-11T16:26:29.757Z,73.50
2018-02-11T16:28:58.556Z,73.70
2018-02-11T16:31:27.682Z,73.90
2018-02-11T16:33:56.132Z,73.90
2018-02-11T16:36:24.554Z,73.90
2018-02-11T16:38:52.970Z,73.80
2018-02-11T16:41:21.720Z,73.80
2018-02-11T16:43:50.245Z,73.70
2018-02-11T16:46:18.662Z,73.70
2018-02-11T16:48:47.108Z,73.70
2018-02-11T16:51:16.471Z,73.90
2018-02-11T16:53:46.541Z,73.90
2018-02-11T16:56:15.908Z,74.00
2018-02-11T16:58:44.285Z,74.00
2018-02-11T17:01:13.053Z,74.00
2018-02-11T17:03:41.939Z,74.10
2018-02-11T17:06:10.485Z,73.90
2018-02-11T17:08:40.669Z,73.80
2018-02-11T17:11:10.318Z,73.70
2018-02-11T17:13:39.089Z,73.70
2018-02-11T17:16:07.630Z,74.00
2018-02-11T17:18:38.526Z,74.30
2018-02-11T17:21:07.553Z,74.30
2018-02-11T17:23:36.499Z,74.50
2018-02-11T17:26:05.089Z,74.70
2018-02-11T17:28:33.776Z,74.70
2018-02-11T17:31:02.483Z,74.50
2018-02-11T17:33:31.239Z,74.70
2018-02-11T17:35:59.923Z,74.60
2018-02-11T17:38:29.697Z,74.80
2018-02-11T17:40:59.204Z,74.80
2018-02-11T17:43:28.061Z,74.90
2018-02-11T17:45:57.196Z,74.50
2018-02-11T17:48:26.581Z,74.50
2018-02-11T17:50:55.612Z,74.50
2018-02-11T17:53:24.486Z,74.70
2018-02-11T17:55:53.449Z,75.00
2018-02-11T17:58:22.647Z,74.70
2018-02-11T18:00:51.184Z,74.90
2018-02-11T18:03:20.661Z,74.90
2018-02-11T18:05:49.330Z,74.90
2018-02-11T18:08:17.984Z,75.00
2018-02-11T18:10:46.498Z,75.30
2018-02-11T18:13:15.247Z,75.30
2018-02-11T18:15:44.061Z,75.00
2018-02-11T18:18:12.736Z,75.10
2018-02-11T18:20:41.353Z,75.00
2018-02-11T18:23:10.082Z,75.20
2018-02-11T18:25:38.852Z,75.20
2018-02-11T18:28:07.638Z,75.00
2018-02-11T18:30:37.030Z,74.90
2018-02-11T18:33:06.701Z,74.80
2018-02-11T18:35:36.620Z,74.80
2018-02-11T18:38:07.082Z,75.30
2018-02-11T18:40:37.928Z,75.30
2018-02-11T18:43:06.365Z,75.20
2018-02-11T18:45:34.907Z,75.80
2018-02-11T18:48:03.392Z,76.00
2018-02-11T18:50:34.464Z,76.50
2018-02-11T18:53:04.531Z,76.60
2018-02-11T18:55:33.215Z,76.60
2018-02-11T18:58:02.420Z,77.20
2018-02-11T19:00:32.687Z,76.90
2018-02-11T19:03:01.352Z,76.80
2018-02-11T19:05:30.878Z,77.00
2018-02-11T19:07:59.671Z,77.10
2018-02-11T19:10:28.369Z,77.30
2018-02-11T19:12:59.505Z,77.60
2018-02-11T19:15:29.517Z,77.70
2018-02-11T19:17:59.201Z,77.90
2018-02-11T19:20:28.173Z,77.80
2018-02-11T19:22:56.603Z,77.80
2018-02-11T19:25:25.966Z,77.90
2018-02-11T19:27:54.381Z,77.90
2018-02-11T19:30:23.161Z,78.10
2018-02-11T19:32:52.099Z,78.30
2018-02-11T19:35:21.047Z,78.20
2018-02-11T19:37:51.470Z,77.70
2018-02-11T19:40:20.805Z,77.70
2018-02-11T19:42:49.993Z,77.50
2018-02-11T19:45:20.472Z,77.20
2018-02-11T19:47:51.622Z,77.20
2018-02-11T19:50:20.422Z,77.40
2018-02-11T19:52:49.103Z,77.50
2018-02-11T19:55:18.083Z,77.50
2018-02-11T19:57:46.657Z,77.30
2018-02-11T20:00:15.789Z,77.30
2018-02-11T20:02:45.474Z,77.40
2018-02-11T20:05:14.339Z,77.30
2018-02-11T20:07:43.056Z,77.40
2018-02-11T20:10:11.517Z,77.60
2018-02-11T20:12:42.190Z,77.90
2018-02-11T20:15:11.307Z,78.00
2018-02-11T20:17:40.205Z,78.10
2018-02-11T20:20:08.658Z,77.90
2018-02-11T20:22:37.130Z,77.90
2018-02-11T20:25:06.004Z,77.80
2018-02-11T20:27:34.589Z,77.50
2018-02-11T20:30:02.979Z,77.50
2018-02-11T20:32:31.567Z,77.60
2018-02-11T20:35:00.040Z,77.30
2018-02-11T20:37:29.856Z,77.50
2018-02-11T20:39:59.167Z,77.60
2018-02-11T20:42:28.879Z,77.80
2018-02-11T20:45:00.686Z,77.80
2018-02-11T20:47:29.100Z,77.70
2018-02-11T20:49:57.911Z,77.70
2018-02-11T20:52:26.789Z,77.90
2018-02-11T20:54:56.602Z,77.90
2018-02-11T20:57:26.379Z,78.10
2018-02-11T20:59:56.016Z,78.10
2018-02-11T21:02:25.050Z,78.10
2018-02-11T21:04:54.198Z,78.40
2018-02-11T21:07:22.950Z,78.30
2018-02-11T21:09:51.386Z,78.40
2018-02-11T21:12:19.952Z,78.50
2018-02-11T21:14:49.818Z,78.40
2018-02-11T21:17:19.206Z,78.70
2018-02-11T21:19:49.409Z,78.60
2018-02-11T21:22:18.276Z,78.70
2018-02-11T21:24:47.008Z,78.60
2018-02-11T21:27:16.241Z,78.60
2018-02-11T21:29:44.613Z,78.60
2018-02-11T21:32:13.489Z,78.90
2018-02-11T21:34:42.311Z,78.80
2018-02-11T21:37:12.838Z,78.70
2018-02-11T21:39:41.914Z,78.80
2018-02-11T21:42:10.785Z,78.70
2018-02-11T21:44:39.732Z,78.70
2018-02-11T21:47:09.419Z,78.60
2018-02-11T21:49:38.288Z,78.70
2018-02-11T21:52:07.053Z,78.90
2018-02-11T21:54:36.519Z,79.00
2018-02-11T21:57:04.905Z,79.00
2018-02-11T21:59:33.298Z,78.80
2018-02-11T22:02:02.667Z,78.80
2018-02-11T22:04:31.876Z,78.80
2018-02-11T22:07:00.751Z,78.60
2018-02-11T22:09:29.148Z,78.80
2018-02-11T22:11:58.129Z,78.90
2018-02-11T22:14:26.957Z,78.60
2018-02-11T22:16:55.671Z,78.80
2018-02-11T22:19:24.802Z,78.90
2018-02-11T22:21:54.512Z,78.90
2018-02-11T22:24:23.709Z,78.90
2018-02-11T22:26:53.461Z,78.90
2018-02-11T22:29:25.934Z,78.70
2018-02-11T22:31:57.252Z,78.70
2018-02-11T22:34:27.412Z,78.60
2018-02-11T22:36:57.716Z,78.60
2018-02-11T22:39:27.052Z,78.60
2018-02-11T22:41:57.064Z,78.60
2018-02-11T22:44:27.078Z,78.40
2018-02-11T22:46:57.510Z,78.00
2018-02-11T22:49:28.890Z,77.90
2018-02-11T22:51:57.818Z,78.20
2018-02-11T22:54:27.384Z,78.20
2018-02-11T22:56:57.269Z,78.10
2018-02-11T22:59:27.369Z,78.10
2018-02-11T23:01:57.541Z,78.40
2018-02-11T23:04:27.296Z,78.20
2018-02-11T23:06:57.473Z,78.50
2018-02-11T23:09:25.854Z,78.60
2018-02-11T23:11:54.742Z,78.40
2018-02-11T23:14:23.924Z,78.40
2018-02-11T23:16:52.275Z,78.40
2018-02-11T23:19:21.606Z,78.50
2018-02-11T23:21:49.960Z,78.50
2018-02-11T23:24:19.079Z,78.20
2018-02-11T23:26:47.464Z,78.20
2018-02-11T23:29:15.824Z,78.20
2018-02-11T23:31:46.475Z,78.00
2018-02-11T23:34:15.577Z,78.20
2018-02-11T23:36:43.981Z,78.20
2018-02-11T23:39:12.921Z,78.10
2018-02-11T23:41:41.466Z,78.10
2018-02-11T23:44:10.654Z,78.20
2018-02-11T23:46:40.438Z,78.70
2018-02-11T23:49:08.871Z,78.80
2018-02-11T23:51:37.531Z,78.70
2018-02-11T23:54:06.249Z,78.60
2018-02-11T23:56:35.588Z,78.60
2018-02-11T23:59:04.347Z,78.20
